Strona główna
METAR-TAF:

METAR-TAF

Lotnisko :

Kanoya, Japonia

Szerokość geograficzna: 31-22N, Długość geograficzna: 130-50E, wysokość: 65 m

Aktualna obserwacja pogody

Raport powstał 4 godziny i 32 minut temu, godzina 04:25 UTC
Wiatr 10 kt od zachód
Temperatura 31°C
Wilgotność 63%
Ciśnienie 1012 hPa
Widzialność 10 km lub więcej
Mało chmury na wysokości 3500 ft
Rozproszone chmury na wysokości 23000 ft

METAR: RJFY 160425Z 26010KT 9999 FEW035 SCT230 31/23 Q1012 RMK 2CU035 A2991

czas: 17:57 (08:57 UTC)


TAF: brakujący

Obserwacja i prognoza pogody dla ponad 4000 lotnisk (raport METAR i TAF).

Dostępne stacje oznaczono żółtymi i czerwonymi punktami na mapie.

Najedź kursorem aby zobaczyć nazwę stacji.

Kliknij aby zobaczyć obserwacje i prognozy pogody.

Aby zmienić mapę: kliknij na zielony przycisk z czarnym krzyżykiem, aby powiększyć; na zielony przycisk z myślnikiem, aby pomniejszyć; na zielone strzałki, aby przejść do map sąsiednich.


METAR-TAF: